^^
Saratoga-Weather Station Historical Data
Daily Summary for June 10, 2021 Units:  English    Metric   Both
Daily Weekly Monthly Yearly Custom
  High: Low: Average:
Temperature: 29.7 °F 27.9 °F 28.8 °F
Dew Point: 28.6 °F 26.6 °F 27.3 °F
Humidity: 96% 92% 95%
Wind Speed: 2mph 0mph 0.1mph
Wind Gust: 2mph - -
Wind- - ESE
Pressure: 30.2 in 30.2 in -
Precipitation: 0 in    
Historical Graphs
 
 
Tabular Data for June 10, 2021
Time Temperature Dew Point Pressure Wind Wind Speed Wind Gust Humidity Rainfall Rate (Hourly) solar
00:04 29.1 °F 27.1 °F 30.2 in Calm     92% 0 in 0 W/m2
00:09 29.1 °F 27.1 °F 30.2 in Calm     92% 0 in 0 W/m2
00:14 28.9 °F 27.1 °F 30.2 in Calm     93% 0 in 0 W/m2
00:19 29.1 °F 27.3 °F 30.2 in Calm     93% 0 in 0 W/m2
00:24 29.1 °F 27.3 °F 30.2 in Calm     93% 0 in 0 W/m2
00:29 29.1 °F 27.3 °F 30.2 in Calm     93% 0 in 0 W/m2
00:34 29.1 °F 27.3 °F 30.2 in Calm     93% 0 in 0 W/m2
00:39 29.1 °F 27.3 °F 30.2 in Calm     93% 0 in 0 W/m2
00:44 29.1 °F 27.7 °F 30.2 in Calm     94% 0 in 0 W/m2
00:49 29.1 °F 27.7 °F 30.2 in Calm     94% 0 in 0 W/m2
00:54 28.9 °F 27.5 °F 30.2 in Calm     94% 0 in 0 W/m2
00:59 28.9 °F 27.5 °F 30.2 in Calm     94% 0 in 0 W/m2
01:04 28.8 °F 27 °F 30.2 in Calm     93% 0 in 0 W/m2
01:09 28.8 °F 27.3 °F 30.2 in Calm   1 mph 94% 0 in 0 W/m2
01:14 28.6 °F 27.1 °F 30.2 in Calm     94% 0 in 0 W/m2
01:19 28.6 °F 27.1 °F 30.2 in Calm     94% 0 in 0 W/m2
01:24 28.6 °F 27.1 °F 30.2 in Calm     94% 0 in 0 W/m2
01:29 28.4 °F 27 °F 30.2 in ESE 0.9 mph 1 mph 94% 0 in 0 W/m2
01:34 28.2 °F 26.8 °F 30.2 in Calm     94% 0 in 0 W/m2
01:39 28.2 °F 26.8 °F 30.2 in Calm     94% 0 in 0 W/m2
01:44 28.2 °F 26.8 °F 30.2 in Calm   1 mph 94% 0 in 0 W/m2
01:49 28.4 °F 27.1 °F 30.2 in Calm     95% 0 in 0 W/m2
01:54 28.6 °F 27.3 °F 30.2 in Calm     95% 0 in 0 W/m2
01:59 28.8 °F 27.5 °F 30.2 in ESE 0.9 mph 2 mph 95% 0 in 0 W/m2
02:04 28.9 °F 27.7 °F 30.2 in Calm   1 mph 95% 0 in 0 W/m2
02:09 29.1 °F 27.9 °F 30.2 in Calm   2 mph 95% 0 in 0 W/m2
02:14 29.3 °F 28 °F 30.2 in Calm     95% 0 in 0 W/m2
02:19 29.3 °F 28 °F 30.2 in Calm     95% 0 in 0 W/m2
02:24 29.1 °F 27.9 °F 30.2 in Calm     95% 0 in 0 W/m2
02:29 29.1 °F 27.9 °F 30.2 in Calm     95% 0 in 0 W/m2
02:34 28.9 °F 27.5 °F 30.2 in Calm     94% 0 in 0 W/m2
02:39 28.8 °F 27.3 °F 30.2 in Calm     94% 0 in 0 W/m2
02:44 28.8 °F 27.3 °F 30.2 in Calm     94% 0 in 0 W/m2
02:49 28.6 °F 27.1 °F 30.2 in Calm     94% 0 in 0 W/m2
02:54 28.2 °F 26.8 °F 30.2 in Calm     94% 0 in 0 W/m2
02:59 28.2 °F 26.8 °F 30.2 in Calm     94% 0 in 0 W/m2
03:04 28 °F 26.6 °F 30.2 in Calm     94% 0 in 0 W/m2
03:09 28 °F 26.6 °F 30.2 in Calm     94% 0 in 0 W/m2
03:14 27.9 °F 26.6 °F 30.2 in Calm     95% 0 in 0 W/m2
03:19 27.9 °F 26.6 °F 30.2 in Calm     95% 0 in 0 W/m2
03:24 27.9 °F 26.6 °F 30.2 in Calm     95% 0 in 0 W/m2
03:29 27.9 °F 26.6 °F 30.2 in Calm     95% 0 in 0 W/m2
03:34 27.9 °F 26.6 °F 30.2 in Calm     95% 0 in 0 W/m2
03:39 27.9 °F 26.6 °F 30.2 in Calm     95% 0 in 0 W/m2
03:44 27.9 °F 26.6 °F 30.2 in Calm     95% 0 in 0 W/m2
03:49 28 °F 26.8 °F 30.2 in Calm     95% 0 in 0 W/m2
03:54 28.2 °F 27 °F 30.2 in Calm     95% 0 in 0 W/m2
03:59 28.2 °F 27 °F 30.2 in Calm     95% 0 in 0 W/m2
04:04 28.6 °F 27.3 °F 30.2 in Calm     95% 0 in 0 W/m2
04:09 28.6 °F 27.3 °F 30.2 in Calm     95% 0 in 0 W/m2
04:14 28.6 °F 27.3 °F 30.2 in Calm     95% 0 in 0 W/m2
04:19 28.8 °F 27.5 °F 30.2 in Calm     95% 0 in 0 W/m2
04:24 28.8 °F 27.5 °F 30.2 in Calm     95% 0 in 0 W/m2
04:29 28.9 °F 27.7 °F 30.2 in Calm     95% 0 in 0 W/m2
04:34 29.1 °F 28 °F 30.2 in Calm     96% 0 in 0 W/m2
04:39 29.3 °F 28.2 °F 30.2 in Calm     96% 0 in 0 W/m2
04:44 29.3 °F 28.2 °F 30.2 in Calm     96% 0 in 0 W/m2
04:50 29.3 °F 28.2 °F 30.2 in Calm     96% 0 in 0 W/m2
04:55 29.3 °F 28 °F 30.2 in Calm     95% 0 in 0 W/m2
05:00 29.3 °F 28 °F 30.2 in Calm     95% 0 in 0 W/m2
05:05 29.3 °F 28 °F 30.2 in Calm     95% 0 in 0 W/m2
05:10 29.5 °F 28.2 °F 30.2 in Calm     95% 0 in 0 W/m2
05:15 29.5 °F 28.2 °F 30.2 in Calm     95% 0 in 0 W/m2
05:20 29.5 °F 28.2 °F 30.2 in Calm     95% 0 in 0 W/m2
05:25 29.5 °F 28.2 °F 30.2 in Calm     95% 0 in 0 W/m2
05:30 29.7 °F 28.4 °F 30.2 in ESE 0.9 mph 1 mph 95% 0 in 0 W/m2
05:35 29.7 °F 28.6 °F 30.2 in ESE 2 mph 2 mph 96% 0 in 0 W/m2
Juneau County Weather
Compliments of Weather Underground - 2 mb